sensor_id;sensor_type;location;lat;lon;timestamp;P1;durP1;ratioP1;P2;durP2;ratioP2
7961;SDS011;4026;43.652;24.906;2024-03-02T00:00:36;12.57;;;2.53;;
7961;SDS011;4026;43.652;24.906;2024-03-02T00:03:03;4.77;;;2.80;;
7961;SDS011;4026;43.652;24.906;2024-03-02T00:05:32;5.80;;;2.73;;
7961;SDS011;4026;43.652;24.906;2024-03-02T00:07:59;5.33;;;3.07;;
7961;SDS011;4026;43.652;24.906;2024-03-02T00:10:26;3.50;;;2.57;;
7961;SDS011;4026;43.652;24.906;2024-03-02T00:13:00;7.13;;;2.27;;
7961;SDS011;4026;43.652;24.906;2024-03-02T00:15:38;4.37;;;2.60;;
7961;SDS011;4026;43.652;24.906;2024-03-02T00:18:08;3.37;;;2.20;;
7961;SDS011;4026;43.652;24.906;2024-03-02T00:20:39;3.87;;;2.00;;
7961;SDS011;4026;43.652;24.906;2024-03-02T00:23:06;9.43;;;2.57;;
7961;SDS011;4026;43.652;24.906;2024-03-02T00:25:38;5.33;;;2.23;;
7961;SDS011;4026;43.652;24.906;2024-03-02T00:28:11;6.63;;;3.07;;
7961;SDS011;4026;43.652;24.906;2024-03-02T00:30:46;2.80;;;2.00;;
7961;SDS011;4026;43.652;24.906;2024-03-02T00:33:18;4.90;;;1.40;;
7961;SDS011;4026;43.652;24.906;2024-03-02T00:35:48;6.50;;;3.03;;
7961;SDS011;4026;43.652;24.906;2024-03-02T00:38:16;4.20;;;1.87;;
7961;SDS011;4026;43.652;24.906;2024-03-02T00:40:43;2.10;;;1.90;;
7961;SDS011;4026;43.652;24.906;2024-03-02T00:43:12;6.17;;;2.80;;
7961;SDS011;4026;43.652;24.906;2024-03-02T00:46:02;3.17;;;2.50;;
7961;SDS011;4026;43.652;24.906;2024-03-02T00:48:29;5.23;;;2.50;;
7961;SDS011;4026;43.652;24.906;2024-03-02T00:50:58;6.43;;;2.70;;
7961;SDS011;4026;43.652;24.906;2024-03-02T00:53:25;11.87;;;2.63;;
7961;SDS011;4026;43.652;24.906;2024-03-02T00:55:52;7.73;;;2.83;;
7961;SDS011;4026;43.652;24.906;2024-03-02T00:58:19;4.67;;;2.13;;
7961;SDS011;4026;43.652;24.906;2024-03-02T01:00:46;4.20;;;2.83;;
7961;SDS011;4026;43.652;24.906;2024-03-02T01:03:13;3.90;;;2.47;;
7961;SDS011;4026;43.652;24.906;2024-03-02T01:05:41;7.07;;;2.67;;
7961;SDS011;4026;43.652;24.906;2024-03-02T01:08:10;3.43;;;2.00;;
7961;SDS011;4026;43.652;24.906;2024-03-02T01:10:37;3.43;;;2.50;;
7961;SDS011;4026;43.652;24.906;2024-03-02T01:13:03;5.20;;;2.33;;
7961;SDS011;4026;43.652;24.906;2024-03-02T01:15:31;3.53;;;1.90;;
7961;SDS011;4026;43.652;24.906;2024-03-02T01:17:58;4.77;;;2.87;;
7961;SDS011;4026;43.652;24.906;2024-03-02T01:20:25;2.00;;;1.83;;
7961;SDS011;4026;43.652;24.906;2024-03-02T01:22:52;3.33;;;1.70;;
7961;SDS011;4026;43.652;24.906;2024-03-02T01:25:20;3.20;;;1.77;;
7961;SDS011;4026;43.652;24.906;2024-03-02T01:27:47;2.30;;;1.53;;
7961;SDS011;4026;43.652;24.906;2024-03-02T01:30:14;5.90;;;2.50;;
7961;SDS011;4026;43.652;24.906;2024-03-02T01:32:41;10.17;;;2.07;;
7961;SDS011;4026;43.652;24.906;2024-03-02T01:35:08;3.67;;;2.20;;
7961;SDS011;4026;43.652;24.906;2024-03-02T01:37:35;7.77;;;2.93;;
7961;SDS011;4026;43.652;24.906;2024-03-02T01:40:01;6.23;;;3.23;;
7961;SDS011;4026;43.652;24.906;2024-03-02T01:42:35;2.90;;;2.43;;
7961;SDS011;4026;43.652;24.906;2024-03-02T01:45:02;3.40;;;2.30;;
7961;SDS011;4026;43.652;24.906;2024-03-02T01:47:30;5.40;;;2.83;;
7961;SDS011;4026;43.652;24.906;2024-03-02T01:49:57;3.73;;;2.53;;
7961;SDS011;4026;43.652;24.906;2024-03-02T01:52:24;4.73;;;2.97;;
7961;SDS011;4026;43.652;24.906;2024-03-02T01:54:52;5.40;;;2.33;;
7961;SDS011;4026;43.652;24.906;2024-03-02T01:57:18;3.90;;;2.90;;
7961;SDS011;4026;43.652;24.906;2024-03-02T01:59:47;3.70;;;2.40;;
7961;SDS011;4026;43.652;24.906;2024-03-02T02:02:14;5.97;;;2.40;;
7961;SDS011;4026;43.652;24.906;2024-03-02T02:04:41;4.43;;;2.70;;
7961;SDS011;4026;43.652;24.906;2024-03-02T02:07:07;9.63;;;3.50;;
7961;SDS011;4026;43.652;24.906;2024-03-02T02:09:34;3.83;;;2.20;;
7961;SDS011;4026;43.652;24.906;2024-03-02T02:12:02;7.10;;;3.00;;
7961;SDS011;4026;43.652;24.906;2024-03-02T02:14:31;4.93;;;2.87;;
7961;SDS011;4026;43.652;24.906;2024-03-02T02:17:00;3.93;;;2.27;;
7961;SDS011;4026;43.652;24.906;2024-03-02T02:19:27;6.80;;;3.53;;
7961;SDS011;4026;43.652;24.906;2024-03-02T02:21:55;6.23;;;3.10;;
7961;SDS011;4026;43.652;24.906;2024-03-02T02:24:22;12.53;;;4.40;;
7961;SDS011;4026;43.652;24.906;2024-03-02T02:26:48;6.50;;;3.07;;
7961;SDS011;4026;43.652;24.906;2024-03-02T02:29:15;4.53;;;2.53;;
7961;SDS011;4026;43.652;24.906;2024-03-02T02:31:42;5.40;;;3.20;;
7961;SDS011;4026;43.652;24.906;2024-03-02T02:34:09;6.03;;;3.23;;
7961;SDS011;4026;43.652;24.906;2024-03-02T02:36:36;5.50;;;3.13;;
7961;SDS011;4026;43.652;24.906;2024-03-02T02:39:06;5.20;;;3.03;;
7961;SDS011;4026;43.652;24.906;2024-03-02T02:41:36;11.00;;;2.77;;
7961;SDS011;4026;43.652;24.906;2024-03-02T02:44:03;6.23;;;2.70;;
7961;SDS011;4026;43.652;24.906;2024-03-02T02:46:29;6.00;;;2.73;;
7961;SDS011;4026;43.652;24.906;2024-03-02T02:48:56;6.97;;;2.93;;
7961;SDS011;4026;43.652;24.906;2024-03-02T02:51:23;6.10;;;3.17;;
7961;SDS011;4026;43.652;24.906;2024-03-02T02:53:50;4.90;;;2.53;;
7961;SDS011;4026;43.652;24.906;2024-03-02T02:56:18;6.40;;;3.50;;
7961;SDS011;4026;43.652;24.906;2024-03-02T02:58:45;5.77;;;2.80;;
7961;SDS011;4026;43.652;24.906;2024-03-02T03:01:12;3.57;;;2.57;;
7961;SDS011;4026;43.652;24.906;2024-03-02T03:03:39;4.57;;;3.00;;
7961;SDS011;4026;43.652;24.906;2024-03-02T03:06:06;7.77;;;3.77;;
7961;SDS011;4026;43.652;24.906;2024-03-02T03:08:33;10.07;;;3.57;;
7961;SDS011;4026;43.652;24.906;2024-03-02T03:10:59;6.33;;;3.37;;
7961;SDS011;4026;43.652;24.906;2024-03-02T03:13:28;5.93;;;3.37;;
7961;SDS011;4026;43.652;24.906;2024-03-02T03:15:53;8.33;;;3.40;;
7961;SDS011;4026;43.652;24.906;2024-03-02T03:18:20;4.47;;;3.07;;
7961;SDS011;4026;43.652;24.906;2024-03-02T03:20:47;13.47;;;4.40;;
7961;SDS011;4026;43.652;24.906;2024-03-02T03:23:15;4.70;;;3.33;;
7961;SDS011;4026;43.652;24.906;2024-03-02T03:25:42;7.83;;;4.37;;
7961;SDS011;4026;43.652;24.906;2024-03-02T03:28:09;6.50;;;2.93;;
7961;SDS011;4026;43.652;24.906;2024-03-02T03:30:37;6.20;;;3.10;;
7961;SDS011;4026;43.652;24.906;2024-03-02T03:33:04;4.90;;;3.30;;
7961;SDS011;4026;43.652;24.906;2024-03-02T03:35:32;4.80;;;3.33;;
7961;SDS011;4026;43.652;24.906;2024-03-02T03:37:59;6.23;;;3.37;;
7961;SDS011;4026;43.652;24.906;2024-03-02T03:40:26;8.50;;;3.30;;
7961;SDS011;4026;43.652;24.906;2024-03-02T03:42:53;9.77;;;3.57;;
7961;SDS011;4026;43.652;24.906;2024-03-02T03:45:21;12.40;;;3.80;;
7961;SDS011;4026;43.652;24.906;2024-03-02T03:47:52;2.97;;;2.10;;
7961;SDS011;4026;43.652;24.906;2024-03-02T03:50:19;6.50;;;3.73;;
7961;SDS011;4026;43.652;24.906;2024-03-02T03:52:46;6.73;;;3.70;;
7961;SDS011;4026;43.652;24.906;2024-03-02T03:55:13;6.57;;;3.07;;
7961;SDS011;4026;43.652;24.906;2024-03-02T03:57:40;3.60;;;2.23;;
7961;SDS011;4026;43.652;24.906;2024-03-02T04:00:07;11.33;;;3.17;;
7961;SDS011;4026;43.652;24.906;2024-03-02T04:02:36;5.20;;;2.90;;
7961;SDS011;4026;43.652;24.906;2024-03-02T04:05:05;6.27;;;3.70;;
7961;SDS011;4026;43.652;24.906;2024-03-02T04:07:34;11.13;;;3.87;;
7961;SDS011;4026;43.652;24.906;2024-03-02T04:10:08;5.50;;;3.70;;
7961;SDS011;4026;43.652;24.906;2024-03-02T04:12:37;2.77;;;2.07;;
7961;SDS011;4026;43.652;24.906;2024-03-02T04:15:05;6.50;;;3.13;;
7961;SDS011;4026;43.652;24.906;2024-03-02T04:17:32;2.47;;;1.60;;
7961;SDS011;4026;43.652;24.906;2024-03-02T04:20:00;4.60;;;3.23;;
7961;SDS011;4026;43.652;24.906;2024-03-02T04:22:32;5.40;;;2.63;;
7961;SDS011;4026;43.652;24.906;2024-03-02T04:24:59;7.90;;;4.40;;
7961;SDS011;4026;43.652;24.906;2024-03-02T04:27:26;8.13;;;3.60;;
7961;SDS011;4026;43.652;24.906;2024-03-02T04:29:53;9.40;;;2.97;;
7961;SDS011;4026;43.652;24.906;2024-03-02T04:32:20;4.03;;;2.90;;
7961;SDS011;4026;43.652;24.906;2024-03-02T04:34:47;10.97;;;3.67;;
7961;SDS011;4026;43.652;24.906;2024-03-02T04:37:14;9.40;;;3.07;;
7961;SDS011;4026;43.652;24.906;2024-03-02T04:39:42;7.27;;;3.70;;
7961;SDS011;4026;43.652;24.906;2024-03-02T04:42:09;11.73;;;5.00;;
7961;SDS011;4026;43.652;24.906;2024-03-02T04:44:35;4.17;;;2.73;;
7961;SDS011;4026;43.652;24.906;2024-03-02T04:47:03;5.03;;;4.03;;
7961;SDS011;4026;43.652;24.906;2024-03-02T04:49:30;6.33;;;4.10;;
7961;SDS011;4026;43.652;24.906;2024-03-02T04:51:57;4.37;;;2.07;;
7961;SDS011;4026;43.652;24.906;2024-03-02T04:54:24;9.40;;;5.03;;
7961;SDS011;4026;43.652;24.906;2024-03-02T04:56:52;3.60;;;2.63;;
7961;SDS011;4026;43.652;24.906;2024-03-02T04:59:19;8.63;;;3.83;;
7961;SDS011;4026;43.652;24.906;2024-03-02T05:01:46;7.77;;;3.80;;
7961;SDS011;4026;43.652;24.906;2024-03-02T05:04:13;7.10;;;3.93;;
7961;SDS011;4026;43.652;24.906;2024-03-02T05:06:40;7.47;;;4.30;;
7961;SDS011;4026;43.652;24.906;2024-03-02T05:09:07;6.37;;;3.33;;
7961;SDS011;4026;43.652;24.906;2024-03-02T05:11:34;5.13;;;2.93;;
7961;SDS011;4026;43.652;24.906;2024-03-02T05:14:37;7.67;;;3.90;;
7961;SDS011;4026;43.652;24.906;2024-03-02T05:17:03;8.10;;;4.50;;
7961;SDS011;4026;43.652;24.906;2024-03-02T05:19:30;8.70;;;5.23;;
7961;SDS011;4026;43.652;24.906;2024-03-02T05:21:57;13.33;;;5.60;;
7961;SDS011;4026;43.652;24.906;2024-03-02T05:24:24;10.63;;;5.27;;
7961;SDS011;4026;43.652;24.906;2024-03-02T05:26:53;5.47;;;3.43;;
7961;SDS011;4026;43.652;24.906;2024-03-02T05:29:19;6.10;;;3.27;;
7961;SDS011;4026;43.652;24.906;2024-03-02T05:31:48;8.10;;;3.47;;
7961;SDS011;4026;43.652;24.906;2024-03-02T05:34:14;7.57;;;4.10;;
7961;SDS011;4026;43.652;24.906;2024-03-02T05:36:41;6.47;;;3.77;;
7961;SDS011;4026;43.652;24.906;2024-03-02T05:39:08;7.37;;;3.80;;
7961;SDS011;4026;43.652;24.906;2024-03-02T05:41:35;8.77;;;3.93;;
7961;SDS011;4026;43.652;24.906;2024-03-02T05:44:03;5.53;;;4.00;;
7961;SDS011;4026;43.652;24.906;2024-03-02T05:46:30;5.40;;;3.93;;
7961;SDS011;4026;43.652;24.906;2024-03-02T05:48:58;9.40;;;3.67;;
7961;SDS011;4026;43.652;24.906;2024-03-02T05:51:26;6.83;;;4.40;;
7961;SDS011;4026;43.652;24.906;2024-03-02T05:53:52;5.90;;;3.03;;
7961;SDS011;4026;43.652;24.906;2024-03-02T05:56:19;11.00;;;4.77;;
7961;SDS011;4026;43.652;24.906;2024-03-02T05:58:46;4.40;;;3.03;;
7961;SDS011;4026;43.652;24.906;2024-03-02T06:01:23;13.23;;;4.53;;
7961;SDS011;4026;43.652;24.906;2024-03-02T06:03:53;10.97;;;4.57;;
7961;SDS011;4026;43.652;24.906;2024-03-02T06:06:22;5.03;;;3.27;;
7961;SDS011;4026;43.652;24.906;2024-03-02T06:08:49;7.07;;;4.13;;
7961;SDS011;4026;43.652;24.906;2024-03-02T06:11:16;13.07;;;4.73;;
7961;SDS011;4026;43.652;24.906;2024-03-02T06:13:43;13.07;;;3.70;;
7961;SDS011;4026;43.652;24.906;2024-03-02T06:16:10;5.27;;;2.53;;
7961;SDS011;4026;43.652;24.906;2024-03-02T06:18:37;4.77;;;3.73;;
7961;SDS011;4026;43.652;24.906;2024-03-02T06:21:04;9.17;;;3.13;;
7961;SDS011;4026;43.652;24.906;2024-03-02T06:23:32;8.87;;;4.47;;
7961;SDS011;4026;43.652;24.906;2024-03-02T06:26:00;6.40;;;3.77;;
7961;SDS011;4026;43.652;24.906;2024-03-02T06:28:27;6.27;;;4.13;;
7961;SDS011;4026;43.652;24.906;2024-03-02T06:30:54;6.40;;;3.77;;
7961;SDS011;4026;43.652;24.906;2024-03-02T06:33:20;5.17;;;2.47;;
7961;SDS011;4026;43.652;24.906;2024-03-02T06:35:47;9.40;;;4.77;;
7961;SDS011;4026;43.652;24.906;2024-03-02T06:38:14;6.30;;;2.93;;
7961;SDS011;4026;43.652;24.906;2024-03-02T06:40:42;8.57;;;4.50;;
7961;SDS011;4026;43.652;24.906;2024-03-02T06:43:09;5.57;;;3.57;;
7961;SDS011;4026;43.652;24.906;2024-03-02T06:45:36;4.27;;;2.33;;
7961;SDS011;4026;43.652;24.906;2024-03-02T06:48:03;5.23;;;2.47;;
7961;SDS011;4026;43.652;24.906;2024-03-02T06:50:30;6.53;;;3.40;;
7961;SDS011;4026;43.652;24.906;2024-03-02T06:52:57;6.10;;;3.57;;
7961;SDS011;4026;43.652;24.906;2024-03-02T06:55:23;5.40;;;3.17;;
7961;SDS011;4026;43.652;24.906;2024-03-02T06:57:52;9.27;;;4.07;;
7961;SDS011;4026;43.652;24.906;2024-03-02T07:00:19;7.27;;;3.27;;
7961;SDS011;4026;43.652;24.906;2024-03-02T07:02:46;7.60;;;4.57;;
7961;SDS011;4026;43.652;24.906;2024-03-02T07:05:13;8.10;;;4.87;;
7961;SDS011;4026;43.652;24.906;2024-03-02T07:07:40;6.83;;;3.90;;
7961;SDS011;4026;43.652;24.906;2024-03-02T07:10:07;3.53;;;2.60;;
7961;SDS011;4026;43.652;24.906;2024-03-02T07:12:34;6.87;;;3.50;;
7961;SDS011;4026;43.652;24.906;2024-03-02T07:15:02;7.40;;;3.93;;
7961;SDS011;4026;43.652;24.906;2024-03-02T07:17:55;4.60;;;3.07;;
7961;SDS011;4026;43.652;24.906;2024-03-02T07:20:21;9.00;;;3.73;;
7961;SDS011;4026;43.652;24.906;2024-03-02T07:22:48;9.03;;;3.70;;
7961;SDS011;4026;43.652;24.906;2024-03-02T07:25:15;11.00;;;5.60;;
7961;SDS011;4026;43.652;24.906;2024-03-02T07:27:42;6.00;;;4.07;;
7961;SDS011;4026;43.652;24.906;2024-03-02T07:30:13;12.03;;;3.87;;
7961;SDS011;4026;43.652;24.906;2024-03-02T07:32:41;7.17;;;3.83;;
7961;SDS011;4026;43.652;24.906;2024-03-02T07:35:11;16.67;;;10.30;;
7961;SDS011;4026;43.652;24.906;2024-03-02T07:37:38;3.00;;;2.40;;
7961;SDS011;4026;43.652;24.906;2024-03-02T07:40:05;6.30;;;3.87;;
7961;SDS011;4026;43.652;24.906;2024-03-02T07:42:36;10.57;;;4.67;;
7961;SDS011;4026;43.652;24.906;2024-03-02T07:45:04;10.33;;;4.57;;
7961;SDS011;4026;43.652;24.906;2024-03-02T07:47:34;9.57;;;4.13;;
7961;SDS011;4026;43.652;24.906;2024-03-02T07:50:01;8.80;;;4.57;;
7961;SDS011;4026;43.652;24.906;2024-03-02T07:52:28;7.07;;;4.37;;
7961;SDS011;4026;43.652;24.906;2024-03-02T07:54:55;6.17;;;3.97;;
7961;SDS011;4026;43.652;24.906;2024-03-02T07:57:21;7.97;;;4.07;;
7961;SDS011;4026;43.652;24.906;2024-03-02T07:59:49;5.43;;;2.87;;
7961;SDS011;4026;43.652;24.906;2024-03-02T08:02:15;8.83;;;4.17;;
7961;SDS011;4026;43.652;24.906;2024-03-02T08:04:44;5.00;;;3.07;;
7961;SDS011;4026;43.652;24.906;2024-03-02T08:07:12;4.20;;;3.00;;
7961;SDS011;4026;43.652;24.906;2024-03-02T08:09:39;10.07;;;4.83;;
7961;SDS011;4026;43.652;24.906;2024-03-02T08:12:06;7.10;;;3.20;;
7961;SDS011;4026;43.652;24.906;2024-03-02T08:14:33;6.07;;;3.83;;
7961;SDS011;4026;43.652;24.906;2024-03-02T08:17:00;9.87;;;5.23;;
7961;SDS011;4026;43.652;24.906;2024-03-02T08:19:27;8.97;;;4.43;;
7961;SDS011;4026;43.652;24.906;2024-03-02T08:21:56;4.93;;;3.43;;
7961;SDS011;4026;43.652;24.906;2024-03-02T08:24:24;11.50;;;5.57;;
7961;SDS011;4026;43.652;24.906;2024-03-02T08:26:51;8.30;;;4.40;;
7961;SDS011;4026;43.652;24.906;2024-03-02T08:29:18;11.37;;;4.20;;
7961;SDS011;4026;43.652;24.906;2024-03-02T08:31:45;22.70;;;6.00;;
7961;SDS011;4026;43.652;24.906;2024-03-02T08:34:11;8.10;;;4.30;;
7961;SDS011;4026;43.652;24.906;2024-03-02T08:36:38;14.43;;;5.47;;
7961;SDS011;4026;43.652;24.906;2024-03-02T08:39:07;13.70;;;5.20;;
7961;SDS011;4026;43.652;24.906;2024-03-02T08:41:40;12.67;;;5.00;;
7961;SDS011;4026;43.652;24.906;2024-03-02T08:44:08;5.80;;;2.67;;
7961;SDS011;4026;43.652;24.906;2024-03-02T08:46:35;8.90;;;3.40;;
7961;SDS011;4026;43.652;24.906;2024-03-02T08:49:02;4.17;;;2.43;;
7961;SDS011;4026;43.652;24.906;2024-03-02T08:51:29;6.20;;;3.50;;
7961;SDS011;4026;43.652;24.906;2024-03-02T08:53:56;12.73;;;6.27;;
7961;SDS011;4026;43.652;24.906;2024-03-02T08:56:25;8.87;;;4.63;;
7961;SDS011;4026;43.652;24.906;2024-03-02T08:58:52;15.77;;;4.43;;
7961;SDS011;4026;43.652;24.906;2024-03-02T09:01:19;7.27;;;4.47;;
7961;SDS011;4026;43.652;24.906;2024-03-02T09:03:46;7.13;;;3.80;;
7961;SDS011;4026;43.652;24.906;2024-03-02T09:06:14;7.80;;;4.13;;
7961;SDS011;4026;43.652;24.906;2024-03-02T09:08:42;9.37;;;4.87;;
7961;SDS011;4026;43.652;24.906;2024-03-02T09:11:09;7.70;;;4.50;;
7961;SDS011;4026;43.652;24.906;2024-03-02T09:13:38;10.40;;;5.23;;
7961;SDS011;4026;43.652;24.906;2024-03-02T09:16:05;7.00;;;4.47;;
7961;SDS011;4026;43.652;24.906;2024-03-02T09:18:36;15.70;;;5.00;;
7961;SDS011;4026;43.652;24.906;2024-03-02T09:21:03;14.30;;;6.00;;
7961;SDS011;4026;43.652;24.906;2024-03-02T09:23:30;11.50;;;5.00;;
7961;SDS011;4026;43.652;24.906;2024-03-02T09:25:57;11.17;;;3.80;;
7961;SDS011;4026;43.652;24.906;2024-03-02T09:28:24;8.10;;;4.70;;
7961;SDS011;4026;43.652;24.906;2024-03-02T09:30:52;18.10;;;4.37;;
7961;SDS011;4026;43.652;24.906;2024-03-02T09:33:19;8.70;;;5.30;;
7961;SDS011;4026;43.652;24.906;2024-03-02T09:35:46;9.10;;;4.77;;
7961;SDS011;4026;43.652;24.906;2024-03-02T09:38:13;9.97;;;5.00;;
7961;SDS011;4026;43.652;24.906;2024-03-02T09:40:41;8.83;;;4.47;;
7961;SDS011;4026;43.652;24.906;2024-03-02T09:43:08;12.53;;;5.77;;
7961;SDS011;4026;43.652;24.906;2024-03-02T09:45:35;14.93;;;5.20;;
7961;SDS011;4026;43.652;24.906;2024-03-02T09:48:04;16.60;;;5.43;;
7961;SDS011;4026;43.652;24.906;2024-03-02T09:50:32;15.13;;;5.43;;
7961;SDS011;4026;43.652;24.906;2024-03-02T09:52:59;28.23;;;5.40;;
7961;SDS011;4026;43.652;24.906;2024-03-02T09:55:26;6.77;;;4.47;;
7961;SDS011;4026;43.652;24.906;2024-03-02T09:57:53;7.70;;;5.23;;
7961;SDS011;4026;43.652;24.906;2024-03-02T10:00:20;12.60;;;6.33;;
7961;SDS011;4026;43.652;24.906;2024-03-02T10:02:46;12.00;;;5.33;;
7961;SDS011;4026;43.652;24.906;2024-03-02T10:05:24;12.60;;;4.93;;
7961;SDS011;4026;43.652;24.906;2024-03-02T10:07:58;7.30;;;3.93;;
7961;SDS011;4026;43.652;24.906;2024-03-02T10:10:26;14.60;;;5.17;;
7961;SDS011;4026;43.652;24.906;2024-03-02T10:13:04;7.23;;;4.10;;
7961;SDS011;4026;43.652;24.906;2024-03-02T10:15:32;12.73;;;5.03;;
7961;SDS011;4026;43.652;24.906;2024-03-02T10:17:59;9.63;;;6.07;;
7961;SDS011;4026;43.652;24.906;2024-03-02T10:20:27;11.47;;;5.60;;
7961;SDS011;4026;43.652;24.906;2024-03-02T10:22:55;8.10;;;5.20;;
7961;SDS011;4026;43.652;24.906;2024-03-02T10:25:29;12.90;;;4.77;;
7961;SDS011;4026;43.652;24.906;2024-03-02T10:27:57;6.63;;;4.27;;
7961;SDS011;4026;43.652;24.906;2024-03-02T10:30:25;10.37;;;4.50;;
7961;SDS011;4026;43.652;24.906;2024-03-02T10:32:52;18.80;;;5.00;;
7961;SDS011;4026;43.652;24.906;2024-03-02T10:35:20;14.00;;;5.47;;
7961;SDS011;4026;43.652;24.906;2024-03-02T10:37:49;10.60;;;5.13;;
7961;SDS011;4026;43.652;24.906;2024-03-02T10:40:17;13.07;;;5.13;;
7961;SDS011;4026;43.652;24.906;2024-03-02T10:42:44;10.20;;;5.40;;
7961;SDS011;4026;43.652;24.906;2024-03-02T10:45:11;10.93;;;4.63;;
7961;SDS011;4026;43.652;24.906;2024-03-02T10:47:40;15.40;;;5.60;;
7961;SDS011;4026;43.652;24.906;2024-03-02T10:50:08;9.27;;;5.20;;
7961;SDS011;4026;43.652;24.906;2024-03-02T10:52:35;13.67;;;5.10;;
7961;SDS011;4026;43.652;24.906;2024-03-02T10:55:04;17.63;;;5.87;;
7961;SDS011;4026;43.652;24.906;2024-03-02T10:57:36;10.17;;;3.60;;
7961;SDS011;4026;43.652;24.906;2024-03-02T11:00:08;11.27;;;6.33;;
7961;SDS011;4026;43.652;24.906;2024-03-02T11:02:40;12.73;;;5.87;;
7961;SDS011;4026;43.652;24.906;2024-03-02T11:05:13;9.53;;;5.10;;
7961;SDS011;4026;43.652;24.906;2024-03-02T11:07:45;9.60;;;5.13;;
7961;SDS011;4026;43.652;24.906;2024-03-02T11:10:14;8.23;;;4.03;;
7961;SDS011;4026;43.652;24.906;2024-03-02T11:12:43;10.83;;;4.60;;
7961;SDS011;4026;43.652;24.906;2024-03-02T11:15:19;10.07;;;5.57;;
7961;SDS011;4026;43.652;24.906;2024-03-02T11:17:50;7.77;;;4.70;;
7961;SDS011;4026;43.652;24.906;2024-03-02T11:20:18;9.67;;;4.63;;
7961;SDS011;4026;43.652;24.906;2024-03-02T11:22:45;8.23;;;4.47;;
7961;SDS011;4026;43.652;24.906;2024-03-02T11:25:24;13.30;;;5.50;;
7961;SDS011;4026;43.652;24.906;2024-03-02T11:28:01;8.67;;;4.13;;
7961;SDS011;4026;43.652;24.906;2024-03-02T11:33:24;9.67;;;5.17;;
7961;SDS011;4026;43.652;24.906;2024-03-02T11:35:52;6.77;;;3.80;;
7961;SDS011;4026;43.652;24.906;2024-03-02T11:38:19;10.27;;;5.07;;
7961;SDS011;4026;43.652;24.906;2024-03-02T11:40:47;10.17;;;4.73;;
7961;SDS011;4026;43.652;24.906;2024-03-02T11:43:14;12.80;;;5.47;;
7961;SDS011;4026;43.652;24.906;2024-03-02T11:45:42;12.13;;;5.43;;
7961;SDS011;4026;43.652;24.906;2024-03-02T11:48:11;10.43;;;4.87;;
7961;SDS011;4026;43.652;24.906;2024-03-02T11:50:40;10.57;;;4.77;;
7961;SDS011;4026;43.652;24.906;2024-03-02T11:53:08;11.20;;;4.97;;
7961;SDS011;4026;43.652;24.906;2024-03-02T11:55:38;10.77;;;5.97;;
7961;SDS011;4026;43.652;24.906;2024-03-02T11:58:08;11.77;;;4.67;;
7961;SDS011;4026;43.652;24.906;2024-03-02T12:00:35;8.90;;;5.03;;
7961;SDS011;4026;43.652;24.906;2024-03-02T12:03:02;10.87;;;5.33;;
7961;SDS011;4026;43.652;24.906;2024-03-02T12:05:32;12.73;;;6.07;;
7961;SDS011;4026;43.652;24.906;2024-03-02T12:08:00;10.47;;;4.80;;
7961;SDS011;4026;43.652;24.906;2024-03-02T12:10:29;16.93;;;9.77;;
7961;SDS011;4026;43.652;24.906;2024-03-02T12:12:57;9.50;;;5.20;;
7961;SDS011;4026;43.652;24.906;2024-03-02T12:15:26;14.90;;;7.13;;
7961;SDS011;4026;43.652;24.906;2024-03-02T12:17:53;11.87;;;7.50;;
7961;SDS011;4026;43.652;24.906;2024-03-02T12:20:21;9.30;;;4.70;;
7961;SDS011;4026;43.652;24.906;2024-03-02T12:22:49;9.40;;;5.00;;
7961;SDS011;4026;43.652;24.906;2024-03-02T12:25:17;13.17;;;5.80;;
7961;SDS011;4026;43.652;24.906;2024-03-02T12:27:44;8.77;;;4.73;;
7961;SDS011;4026;43.652;24.906;2024-03-02T12:30:12;11.93;;;6.07;;
7961;SDS011;4026;43.652;24.906;2024-03-02T12:32:41;16.37;;;6.43;;
7961;SDS011;4026;43.652;24.906;2024-03-02T12:35:08;9.67;;;5.13;;
7961;SDS011;4026;43.652;24.906;2024-03-02T12:37:42;10.20;;;5.40;;
7961;SDS011;4026;43.652;24.906;2024-03-02T12:40:10;10.30;;;4.40;;
7961;SDS011;4026;43.652;24.906;2024-03-02T12:42:37;11.70;;;5.00;;
7961;SDS011;4026;43.652;24.906;2024-03-02T12:45:05;8.80;;;4.47;;
7961;SDS011;4026;43.652;24.906;2024-03-02T12:47:33;9.37;;;5.03;;
7961;SDS011;4026;43.652;24.906;2024-03-02T12:50:01;7.80;;;4.90;;
7961;SDS011;4026;43.652;24.906;2024-03-02T12:52:30;10.73;;;5.13;;
7961;SDS011;4026;43.652;24.906;2024-03-02T12:54:57;10.67;;;4.37;;
7961;SDS011;4026;43.652;24.906;2024-03-02T12:57:25;12.10;;;5.47;;
7961;SDS011;4026;43.652;24.906;2024-03-02T12:59:56;11.50;;;4.87;;
7961;SDS011;4026;43.652;24.906;2024-03-02T13:02:26;12.43;;;4.90;;
7961;SDS011;4026;43.652;24.906;2024-03-02T13:04:54;6.73;;;4.27;;
7961;SDS011;4026;43.652;24.906;2024-03-02T13:07:23;14.20;;;5.30;;
7961;SDS011;4026;43.652;24.906;2024-03-02T13:09:51;11.73;;;4.67;;
7961;SDS011;4026;43.652;24.906;2024-03-02T13:12:20;12.73;;;5.23;;
7961;SDS011;4026;43.652;24.906;2024-03-02T13:14:48;10.30;;;4.93;;
7961;SDS011;4026;43.652;24.906;2024-03-02T13:17:15;8.57;;;5.13;;
7961;SDS011;4026;43.652;24.906;2024-03-02T13:19:43;10.70;;;5.40;;
7961;SDS011;4026;43.652;24.906;2024-03-02T13:22:17;8.70;;;4.57;;
7961;SDS011;4026;43.652;24.906;2024-03-02T13:24:46;11.50;;;5.77;;
7961;SDS011;4026;43.652;24.906;2024-03-02T13:27:12;9.87;;;4.40;;
7961;SDS011;4026;43.652;24.906;2024-03-02T13:29:39;10.87;;;4.70;;
7961;SDS011;4026;43.652;24.906;2024-03-02T13:32:06;9.83;;;5.17;;
7961;SDS011;4026;43.652;24.906;2024-03-02T13:34:34;8.40;;;4.33;;
7961;SDS011;4026;43.652;24.906;2024-03-02T13:37:01;10.60;;;5.27;;
7961;SDS011;4026;43.652;24.906;2024-03-02T13:39:29;10.27;;;4.30;;
7961;SDS011;4026;43.652;24.906;2024-03-02T13:41:58;7.63;;;4.20;;
7961;SDS011;4026;43.652;24.906;2024-03-02T13:44:29;10.10;;;5.57;;
7961;SDS011;4026;43.652;24.906;2024-03-02T13:46:56;12.77;;;5.30;;
7961;SDS011;4026;43.652;24.906;2024-03-02T13:49:23;7.73;;;4.30;;
7961;SDS011;4026;43.652;24.906;2024-03-02T13:51:53;11.57;;;4.97;;
7961;SDS011;4026;43.652;24.906;2024-03-02T13:54:21;9.90;;;4.70;;
7961;SDS011;4026;43.652;24.906;2024-03-02T13:56:48;13.30;;;5.47;;
7961;SDS011;4026;43.652;24.906;2024-03-02T13:59:16;11.27;;;5.40;;
7961;SDS011;4026;43.652;24.906;2024-03-02T14:01:44;13.97;;;6.03;;
7961;SDS011;4026;43.652;24.906;2024-03-02T14:04:11;9.53;;;4.93;;
7961;SDS011;4026;43.652;24.906;2024-03-02T14:06:38;9.07;;;5.23;;
7961;SDS011;4026;43.652;24.906;2024-03-02T14:09:05;13.50;;;5.20;;
7961;SDS011;4026;43.652;24.906;2024-03-02T14:11:32;10.83;;;4.63;;
7961;SDS011;4026;43.652;24.906;2024-03-02T14:13:58;11.90;;;5.03;;
7961;SDS011;4026;43.652;24.906;2024-03-02T14:16:26;18.20;;;5.33;;
7961;SDS011;4026;43.652;24.906;2024-03-02T14:18:53;11.33;;;4.83;;
7961;SDS011;4026;43.652;24.906;2024-03-02T14:21:20;13.77;;;4.80;;
7961;SDS011;4026;43.652;24.906;2024-03-02T14:23:47;11.53;;;4.80;;
7961;SDS011;4026;43.652;24.906;2024-03-02T14:26:14;12.33;;;5.47;;
7961;SDS011;4026;43.652;24.906;2024-03-02T14:28:40;9.77;;;4.87;;
7961;SDS011;4026;43.652;24.906;2024-03-02T14:31:07;9.70;;;4.87;;
7961;SDS011;4026;43.652;24.906;2024-03-02T14:33:35;10.77;;;5.30;;
7961;SDS011;4026;43.652;24.906;2024-03-02T14:36:02;6.90;;;4.60;;
7961;SDS011;4026;43.652;24.906;2024-03-02T14:38:30;9.80;;;4.63;;
7961;SDS011;4026;43.652;24.906;2024-03-02T14:40:57;12.37;;;5.20;;
7961;SDS011;4026;43.652;24.906;2024-03-02T14:43:24;10.87;;;5.40;;
7961;SDS011;4026;43.652;24.906;2024-03-02T14:45:51;10.20;;;4.60;;
7961;SDS011;4026;43.652;24.906;2024-03-02T14:48:17;10.03;;;5.27;;
7961;SDS011;4026;43.652;24.906;2024-03-02T14:50:46;10.87;;;6.23;;
7961;SDS011;4026;43.652;24.906;2024-03-02T14:53:12;11.87;;;5.30;;
7961;SDS011;4026;43.652;24.906;2024-03-02T14:55:39;11.00;;;4.63;;
7961;SDS011;4026;43.652;24.906;2024-03-02T14:58:06;12.37;;;5.03;;
7961;SDS011;4026;43.652;24.906;2024-03-02T15:00:33;9.07;;;5.30;;
7961;SDS011;4026;43.652;24.906;2024-03-02T15:03:00;14.67;;;5.90;;